createdAt,value
2018-06-17T00:01:35.548Z,20.83
2018-06-17T00:04:04.230Z,22.13
2018-06-17T00:06:32.890Z,23.15
2018-06-17T00:09:01.498Z,20.33
2018-06-17T00:11:30.114Z,22.57
2018-06-17T00:13:58.746Z,22.73
2018-06-17T00:16:27.360Z,20.80
2018-06-17T00:18:55.975Z,21.40
2018-06-17T00:21:24.618Z,22.43
2018-06-17T00:23:53.205Z,22.37
2018-06-17T00:26:21.826Z,22.50
2018-06-17T00:28:50.492Z,20.13
2018-06-17T00:31:19.112Z,21.57
2018-06-17T00:33:47.855Z,22.90
2018-06-17T00:36:16.492Z,21.40
2018-06-17T00:38:45.098Z,23.37
2018-06-17T00:41:13.720Z,20.50
2018-06-17T00:43:42.358Z,21.60
2018-06-17T00:46:10.970Z,22.73
2018-06-17T00:48:39.584Z,21.73
2018-06-17T00:51:08.243Z,21.90
2018-06-17T00:53:36.873Z,23.73
2018-06-17T00:56:05.596Z,22.43
2018-06-17T00:58:34.251Z,20.50
2018-06-17T01:01:03.436Z,23.23
2018-06-17T01:03:32.044Z,22.30
2018-06-17T01:06:00.730Z,22.73
2018-06-17T01:08:29.435Z,22.10
2018-06-17T01:10:58.095Z,23.00
2018-06-17T01:13:26.762Z,23.20
2018-06-17T01:15:55.369Z,23.32
2018-06-17T01:18:24.106Z,21.20
2018-06-17T01:20:52.855Z,21.93
2018-06-17T01:23:21.488Z,21.27
2018-06-17T01:25:50.106Z,21.55
2018-06-17T01:28:18.762Z,22.00
2018-06-17T01:30:47.386Z,20.50
2018-06-17T01:33:16.038Z,21.60
2018-06-17T01:35:44.644Z,22.63
2018-06-17T01:38:13.254Z,22.70
2018-06-17T01:40:41.877Z,21.63
2018-06-17T01:43:10.474Z,20.70
2018-06-17T01:45:39.107Z,23.10
2018-06-17T01:48:07.747Z,22.53
2018-06-17T01:50:36.412Z,20.70
2018-06-17T01:53:05.098Z,21.65
2018-06-17T01:55:33.707Z,21.97
2018-06-17T01:58:02.370Z,23.42
2018-06-17T02:00:31.006Z,22.62
2018-06-17T02:03:03.860Z,21.97
2018-06-17T02:05:37.835Z,22.20
2018-06-17T02:08:11.920Z,25.48
2018-06-17T02:10:45.906Z,23.57
2018-06-17T02:13:14.618Z,23.38
2018-06-17T02:15:43.858Z,22.33
2018-06-17T02:18:18.980Z,23.83
2018-06-17T02:20:47.606Z,23.30
2018-06-17T02:23:16.273Z,21.60
2018-06-17T02:25:44.946Z,21.93
2018-06-17T02:28:13.579Z,23.10
2018-06-17T02:30:42.287Z,24.10
2018-06-17T02:33:10.959Z,23.90
2018-06-17T02:35:39.599Z,22.98
2018-06-17T02:38:08.269Z,22.93
2018-06-17T02:40:36.905Z,24.40
2018-06-17T02:43:05.858Z,24.18
2018-06-17T02:45:39.857Z,25.10
2018-06-17T02:48:13.953Z,22.77
2018-06-17T02:50:47.802Z,22.97
2018-06-17T02:53:21.690Z,21.53
2018-06-17T02:55:50.307Z,21.27
2018-06-17T02:58:18.943Z,22.20
2018-06-17T03:00:47.593Z,22.30
2018-06-17T03:03:16.222Z,22.73
2018-06-17T03:05:44.895Z,20.80
2018-06-17T03:08:13.487Z,22.10
2018-06-17T03:10:42.115Z,23.20
2018-06-17T03:13:10.782Z,22.45
2018-06-17T03:15:39.378Z,20.13
2018-06-17T03:18:08.047Z,20.23
2018-06-17T03:20:36.685Z,22.07
2018-06-17T03:23:05.395Z,22.43
2018-06-17T03:25:39.344Z,21.80
2018-06-17T03:28:13.374Z,23.20
2018-06-17T03:30:47.405Z,23.63
2018-06-17T03:33:21.341Z,20.70
2018-06-17T03:35:55.366Z,22.33
2018-06-17T03:38:23.978Z,22.33
2018-06-17T03:40:52.622Z,23.70
2018-06-17T03:43:21.260Z,22.23
2018-06-17T03:45:49.948Z,21.97
2018-06-17T03:48:18.559Z,22.10
2018-06-17T03:50:47.166Z,20.90
2018-06-17T03:53:15.826Z,21.52
2018-06-17T03:55:44.421Z,20.53
2018-06-17T03:58:13.058Z,22.07
2018-06-17T04:00:41.690Z,20.57
2018-06-17T04:03:10.294Z,21.90
2018-06-17T04:05:38.994Z,19.87
2018-06-17T04:08:07.631Z,21.27
2018-06-17T04:10:36.272Z,18.93
2018-06-17T04:13:04.917Z,21.43
2018-06-17T04:15:33.515Z,21.90
2018-06-17T04:18:02.162Z,20.10
2018-06-17T04:20:30.762Z,22.10
2018-06-17T04:22:59.370Z,22.93
2018-06-17T04:25:28.035Z,22.90
2018-06-17T04:27:56.659Z,22.60
2018-06-17T04:30:25.327Z,21.17
2018-06-17T04:32:53.955Z,21.37
2018-06-17T04:35:22.600Z,21.30
2018-06-17T04:37:51.359Z,19.80
2018-06-17T04:40:19.978Z,19.30
2018-06-17T04:42:48.623Z,21.53
2018-06-17T04:45:17.228Z,20.63
2018-06-17T04:47:45.851Z,19.47
2018-06-17T04:50:14.563Z,21.57
2018-06-17T04:52:43.223Z,19.97
2018-06-17T04:55:11.831Z,21.27
2018-06-17T04:57:40.476Z,23.20
2018-06-17T05:00:09.142Z,21.57
2018-06-17T05:02:37.789Z,23.93
2018-06-17T05:05:06.735Z,22.60
2018-06-17T05:07:35.395Z,20.93
2018-06-17T05:10:04.055Z,22.10
2018-06-17T05:12:32.661Z,20.57
2018-06-17T05:16:25.695Z,19.80
2018-06-17T05:18:54.323Z,20.20
2018-06-17T05:21:22.959Z,20.80
2018-06-17T05:23:51.578Z,20.83
2018-06-17T05:26:20.206Z,22.40
2018-06-17T05:28:48.871Z,20.73
2018-06-17T05:31:17.506Z,18.77
2018-06-17T05:33:46.166Z,20.40
2018-06-17T05:36:14.766Z,20.30
2018-06-17T05:38:43.418Z,20.60
2018-06-17T05:41:12.076Z,16.80
2018-06-17T05:43:40.685Z,18.43
2018-06-17T05:46:09.417Z,19.07
2018-06-17T05:48:38.006Z,18.80
2018-06-17T05:51:06.735Z,17.07
2018-06-17T05:53:35.365Z,17.03
2018-06-17T05:56:03.998Z,16.83
2018-06-17T05:58:32.714Z,16.97
2018-06-17T06:01:01.402Z,17.93
2018-06-17T06:03:30.030Z,17.17
2018-06-17T06:05:58.667Z,18.50
2018-06-17T06:08:27.306Z,16.63
2018-06-17T06:10:56.071Z,16.07
2018-06-17T06:13:24.354Z,15.90
2018-06-17T06:15:53.643Z,16.53
2018-06-17T06:18:22.489Z,15.73
2018-06-17T06:20:51.102Z,15.83
2018-06-17T06:23:20.923Z,16.10
2018-06-17T06:25:49.509Z,14.53
2018-06-17T06:28:18.780Z,15.13
2018-06-17T06:30:47.449Z,13.67
2018-06-17T06:33:16.041Z,13.87
2018-06-17T06:35:44.696Z,12.37
2018-06-17T06:38:13.342Z,11.53
2018-06-17T06:40:42.024Z,11.73
2018-06-17T06:43:10.666Z,10.70
2018-06-17T06:45:39.308Z,12.87
2018-06-17T06:48:07.983Z,12.00
2018-06-17T06:50:37.018Z,12.20
2018-06-17T06:53:05.821Z,10.70
2018-06-17T06:55:34.707Z,11.90
2018-06-17T06:58:03.599Z,9.70
2018-06-17T07:00:32.241Z,10.37
2018-06-17T07:03:12.345Z,11.70
2018-06-17T07:05:52.214Z,9.00
2018-06-17T07:08:32.243Z,10.27
2018-06-17T07:11:00.899Z,9.37
2018-06-17T07:13:29.569Z,9.97
2018-06-17T07:16:09.489Z,10.27
2018-06-17T07:18:40.277Z,10.60
2018-06-17T07:21:09.502Z,9.90
2018-06-17T07:23:38.113Z,10.40
2018-06-17T07:26:57.797Z,9.63
2018-06-17T07:29:39.951Z,10.07
2018-06-17T07:32:08.634Z,10.00
2018-06-17T07:34:36.937Z,9.83
2018-06-17T07:37:05.899Z,9.37
2018-06-17T07:41:43.760Z,9.23
2018-06-17T07:44:12.446Z,8.97
2018-06-17T07:46:41.070Z,8.00
2018-06-17T07:49:31.251Z,8.80
2018-06-17T07:52:13.550Z,9.00
2018-06-17T07:54:42.850Z,10.23
2018-06-17T07:57:12.773Z,10.10
2018-06-17T07:59:41.452Z,8.43
2018-06-17T08:02:10.687Z,9.13
2018-06-17T08:04:39.293Z,9.00
2018-06-17T08:07:08.158Z,8.60
2018-06-17T08:09:37.041Z,9.23
2018-06-17T08:12:06.063Z,9.17
2018-06-17T08:14:34.675Z,9.47
2018-06-17T08:19:42.159Z,9.10
2018-06-17T08:22:22.524Z,12.27
2018-06-17T08:24:51.745Z,9.13
2018-06-17T08:27:21.730Z,9.90
2018-06-17T08:29:51.745Z,9.90
2018-06-17T08:32:20.982Z,8.93
2018-06-17T08:34:50.546Z,9.53
2018-06-17T08:37:19.273Z,9.03
2018-06-17T08:39:47.898Z,9.03
2018-06-17T08:42:16.539Z,9.17
2018-06-17T08:44:45.175Z,7.70
2018-06-17T08:47:13.901Z,8.20
2018-06-17T08:49:42.853Z,8.30
2018-06-17T08:52:11.907Z,7.90
2018-06-17T09:00:21.847Z,8.20
2018-06-17T09:02:50.455Z,7.80
2018-06-17T09:05:19.089Z,8.13
2018-06-17T09:07:47.377Z,8.37
2018-06-17T09:10:16.000Z,8.17
2018-06-17T09:12:45.029Z,7.10
2018-06-17T09:15:13.868Z,7.83
2018-06-17T09:17:45.448Z,8.00
2018-06-17T09:20:14.164Z,7.40
2018-06-17T09:22:42.778Z,7.43
2018-06-17T09:25:11.420Z,7.80
2018-06-17T09:27:40.065Z,6.90
2018-06-17T09:30:08.660Z,6.80
2018-06-17T09:32:37.310Z,7.20
2018-06-17T09:35:06.028Z,8.00
2018-06-17T09:37:35.335Z,7.20
2018-06-17T09:40:04.057Z,6.87
2018-06-17T09:42:32.685Z,6.67
2018-06-17T09:45:01.324Z,7.10
2018-06-17T09:47:29.938Z,7.03
2018-06-17T09:49:59.072Z,6.53
2018-06-17T09:52:27.768Z,6.43
2018-06-17T09:54:56.629Z,7.13
2018-06-17T09:57:25.265Z,7.37
2018-06-17T09:59:53.874Z,7.30
2018-06-17T10:02:22.556Z,6.70
2018-06-17T10:04:51.222Z,6.97
2018-06-17T10:07:19.824Z,7.90
2018-06-17T10:10:19.962Z,6.90
2018-06-17T10:12:48.595Z,7.30
2018-06-17T10:15:17.200Z,8.37
2018-06-17T10:17:46.003Z,8.77
2018-06-17T10:20:14.621Z,8.40
2018-06-17T10:22:43.218Z,9.40
2018-06-17T10:25:11.842Z,9.43
2018-06-17T10:27:40.431Z,8.07
2018-06-17T10:30:09.067Z,7.50
2018-06-17T10:32:37.654Z,7.70
2018-06-17T10:35:06.340Z,8.57
2018-06-17T10:37:34.951Z,8.70
2018-06-17T10:40:03.613Z,7.80
2018-06-17T10:42:32.174Z,8.00
2018-06-17T10:45:00.813Z,7.80
2018-06-17T10:47:29.528Z,8.30
2018-06-17T10:49:58.457Z,8.53
2018-06-17T10:52:27.166Z,7.73
2018-06-17T10:54:55.773Z,8.93
2018-06-17T10:57:24.395Z,8.50
2018-06-17T10:59:52.995Z,7.70
2018-06-17T11:02:21.794Z,7.97
2018-06-17T11:04:50.438Z,7.00
2018-06-17T11:07:19.055Z,7.50
2018-06-17T11:09:47.882Z,6.40
2018-06-17T11:12:16.550Z,8.10
2018-06-17T11:14:45.179Z,8.23
2018-06-17T11:17:13.814Z,9.27
2018-06-17T11:19:42.470Z,8.73
2018-06-17T11:22:11.058Z,8.70
2018-06-17T11:24:39.670Z,7.90
2018-06-17T11:27:08.359Z,7.70
2018-06-17T11:29:36.939Z,8.07
2018-06-17T11:32:05.651Z,8.50
2018-06-17T11:34:34.594Z,7.70
2018-06-17T11:37:03.295Z,8.67
2018-06-17T11:39:31.970Z,8.30
2018-06-17T11:42:00.597Z,8.40
2018-06-17T11:44:29.360Z,7.83
2018-06-17T11:46:58.147Z,7.70
2018-06-17T11:49:27.011Z,8.53
2018-06-17T11:51:55.655Z,9.60
2018-06-17T11:54:24.499Z,8.10
2018-06-17T11:56:53.159Z,9.50
2018-06-17T11:59:21.997Z,9.87
2018-06-17T12:01:50.699Z,9.20
2018-06-17T12:04:19.318Z,9.70
2018-06-17T12:06:47.942Z,9.00
2018-06-17T12:09:16.752Z,8.97
2018-06-17T12:11:45.647Z,9.40
2018-06-17T12:14:14.513Z,9.50
2018-06-17T12:16:43.266Z,8.17
2018-06-17T12:19:11.938Z,8.40
2018-06-17T12:21:40.611Z,7.83
2018-06-17T12:24:09.395Z,7.27
2018-06-17T12:26:38.370Z,7.53
2018-06-17T12:29:07.111Z,7.40
2018-06-17T12:31:35.800Z,8.13
2018-06-17T12:34:04.436Z,7.73
2018-06-17T12:36:33.101Z,7.43
2018-06-17T12:39:01.755Z,8.43
2018-06-17T12:41:30.370Z,9.50
2018-06-17T12:43:58.973Z,7.83
2018-06-17T12:46:27.561Z,8.67
2018-06-17T12:48:56.212Z,8.47
2018-06-17T12:51:25.668Z,8.43
2018-06-17T12:53:54.427Z,8.77
2018-06-17T12:56:23.049Z,8.20
2018-06-17T12:58:51.767Z,8.33
2018-06-17T13:01:20.408Z,9.33
2018-06-17T13:03:49.062Z,8.97
2018-06-17T13:06:17.847Z,8.90
2018-06-17T13:08:47.351Z,9.77
2018-06-17T13:11:16.073Z,10.10
2018-06-17T13:13:44.984Z,8.97
2018-06-17T13:16:13.667Z,9.00
2018-06-17T13:18:42.897Z,9.10
2018-06-17T13:21:11.542Z,8.90
2018-06-17T13:23:40.494Z,9.97
2018-06-17T13:26:09.235Z,9.20
2018-06-17T13:28:39.156Z,9.77
2018-06-17T13:31:07.885Z,9.90
2018-06-17T13:33:36.474Z,9.67
2018-06-17T13:36:05.057Z,9.70
2018-06-17T13:38:33.775Z,8.50
2018-06-17T13:41:02.393Z,9.17
2018-06-17T13:43:31.041Z,9.47
2018-06-17T13:45:59.764Z,9.13
2018-06-17T13:48:28.347Z,9.00
2018-06-17T13:50:57.113Z,11.37
2018-06-17T13:53:25.834Z,10.00
2018-06-17T13:55:54.658Z,10.03
2018-06-17T13:58:23.275Z,9.43
2018-06-17T14:00:52.095Z,9.07
2018-06-17T14:03:21.074Z,7.30
2018-06-17T14:05:49.802Z,7.67
2018-06-17T14:08:18.766Z,8.27
2018-06-17T14:10:47.435Z,6.90
2018-06-17T14:13:22.323Z,7.80
2018-06-17T14:15:51.028Z,7.57
2018-06-17T14:18:19.749Z,7.70
2018-06-17T14:20:48.402Z,8.30
2018-06-17T14:23:17.225Z,8.17
2018-06-17T14:25:45.934Z,7.73
2018-06-17T14:28:14.686Z,6.90
2018-06-17T14:30:43.338Z,7.07
2018-06-17T14:33:11.718Z,7.33
2018-06-17T14:35:40.396Z,5.67
2018-06-17T14:38:09.193Z,6.50
2018-06-17T14:40:43.187Z,6.43
2018-06-17T14:43:17.059Z,5.80
2018-06-17T14:45:51.235Z,6.70
2018-06-17T14:48:25.263Z,6.00
2018-06-17T14:50:59.128Z,5.70
2018-06-17T14:53:27.790Z,5.17
2018-06-17T14:55:56.570Z,5.33
2018-06-17T14:58:25.459Z,5.20
2018-06-17T15:00:54.297Z,5.87
2018-06-17T15:03:22.926Z,6.97
2018-06-17T15:05:51.701Z,5.83
2018-06-17T15:08:20.348Z,6.13
2018-06-17T15:10:49.124Z,5.00
2018-06-17T15:13:17.834Z,6.60
2018-06-17T15:15:46.576Z,7.90
2018-06-17T15:18:15.407Z,7.23
2018-06-17T15:20:47.780Z,6.97
2018-06-17T15:23:16.565Z,7.13
2018-06-17T15:25:45.242Z,6.47
2018-06-17T15:28:13.889Z,7.43
2018-06-17T15:30:42.587Z,6.33
2018-06-17T15:33:16.466Z,6.67
2018-06-17T15:35:50.596Z,6.97
2018-06-17T15:38:24.474Z,7.47
2018-06-17T15:40:58.439Z,6.17
2018-06-17T15:43:27.497Z,6.80
2018-06-17T15:45:56.657Z,6.50
2018-06-17T15:48:25.325Z,5.10
2018-06-17T15:50:54.154Z,5.97
2018-06-17T15:53:22.930Z,5.90
2018-06-17T15:55:51.653Z,6.60
2018-06-17T15:58:20.367Z,6.30
2018-06-17T16:00:49.639Z,6.10
2018-06-17T16:03:18.796Z,6.00
2018-06-17T16:05:47.951Z,6.43
2018-06-17T16:08:16.619Z,6.03
2018-06-17T16:10:46.454Z,6.57
2018-06-17T16:13:20.657Z,5.90
2018-06-17T16:15:54.728Z,5.70
2018-06-17T16:18:28.647Z,6.13
2018-06-17T16:20:59.246Z,6.60
2018-06-17T16:23:28.445Z,6.53
2018-06-17T16:25:57.036Z,6.57
2018-06-17T16:28:25.658Z,5.20
2018-06-17T16:30:54.404Z,6.47
2018-06-17T16:33:23.242Z,7.40
2018-06-17T16:35:52.138Z,7.47
2018-06-17T16:38:20.894Z,7.57
2018-06-17T16:40:49.707Z,5.80
2018-06-17T16:43:18.463Z,6.23
2018-06-17T16:45:47.122Z,6.67
2018-06-17T16:48:15.768Z,7.97
2018-06-17T16:50:49.981Z,7.30
2018-06-17T16:53:24.106Z,9.00
2018-06-17T16:55:58.286Z,8.47
2018-06-17T16:58:32.400Z,8.83
2018-06-17T17:01:01.029Z,9.27
2018-06-17T17:03:29.635Z,9.10
2018-06-17T17:05:58.337Z,16.57
2018-06-17T17:08:26.953Z,18.57
2018-06-17T17:10:55.826Z,12.47
2018-06-17T17:13:24.443Z,15.03
2018-06-17T17:15:53.246Z,12.47
2018-06-17T17:18:21.904Z,12.70
2018-06-17T17:20:50.910Z,11.80
2018-06-17T17:23:19.690Z,13.07
2018-06-17T17:25:48.244Z,12.73
2018-06-17T17:28:16.997Z,12.30
2018-06-17T17:30:50.035Z,12.27
2018-06-17T17:33:24.077Z,10.90
2018-06-17T17:35:58.001Z,11.07
2018-06-17T17:38:30.236Z,10.90
2018-06-17T17:41:01.486Z,12.30
2018-06-17T17:43:30.287Z,10.77
2018-06-17T17:46:04.138Z,11.77
2018-06-17T17:48:36.535Z,11.63
2018-06-17T17:51:05.275Z,12.30
2018-06-17T17:53:34.243Z,11.73
2018-06-17T17:56:03.002Z,11.43
2018-06-17T17:58:31.664Z,11.13
2018-06-17T18:01:00.349Z,9.73
2018-06-17T18:03:29.041Z,10.63
2018-06-17T18:05:57.849Z,8.73
2018-06-17T18:08:26.541Z,8.50
2018-06-17T18:10:55.198Z,7.47
2018-06-17T18:13:26.190Z,7.40
2018-06-17T18:15:58.884Z,8.07
2018-06-17T18:18:27.924Z,8.27
2018-06-17T18:20:58.634Z,7.33
2018-06-17T18:23:30.499Z,7.37
2018-06-17T18:26:06.345Z,7.77
2018-06-17T18:28:40.305Z,8.07
2018-06-17T18:31:09.193Z,6.60
2018-06-17T18:33:42.962Z,7.83
2018-06-17T18:36:13.406Z,7.50
2018-06-17T18:38:43.735Z,7.43
2018-06-17T18:41:13.415Z,7.73
2018-06-17T18:43:42.724Z,7.50
2018-06-17T18:46:12.653Z,7.80
2018-06-17T18:48:41.423Z,8.70
2018-06-17T18:51:15.982Z,8.23
2018-06-17T18:53:44.848Z,7.27
2018-06-17T18:56:13.736Z,7.73
2018-06-17T18:58:42.523Z,8.00
2018-06-17T19:01:11.196Z,9.37
2018-06-17T19:03:39.914Z,8.17
2018-06-17T19:06:08.605Z,8.37
2018-06-17T19:08:42.903Z,8.30
2018-06-17T19:11:16.773Z,8.63
2018-06-17T19:13:50.832Z,7.30
2018-06-17T19:17:26.629Z,8.43
2018-06-17T19:19:55.381Z,8.83
2018-06-17T19:22:24.054Z,8.93
2018-06-17T19:24:53.317Z,8.50
2018-06-17T19:27:22.160Z,8.97
2018-06-17T19:29:51.034Z,8.30
2018-06-17T19:32:21.177Z,8.97
2018-06-17T19:34:51.617Z,8.53
2018-06-17T19:37:21.189Z,9.73
2018-06-17T19:39:50.000Z,9.70
2018-06-17T19:42:25.286Z,8.63
2018-06-17T19:44:54.127Z,8.50
2018-06-17T19:47:23.009Z,9.17
2018-06-17T19:49:57.068Z,7.80
2018-06-17T19:52:30.904Z,9.73
2018-06-17T19:55:07.487Z,9.23
2018-06-17T19:57:41.427Z,9.57
2018-06-17T20:00:15.561Z,10.10
2018-06-17T20:02:44.388Z,10.40
2018-06-17T20:05:13.025Z,9.50
2018-06-17T20:07:41.917Z,9.90
2018-06-17T20:10:10.970Z,10.90
2018-06-17T20:12:41.704Z,9.77
2018-06-17T20:15:10.864Z,10.60
2018-06-17T20:17:39.487Z,10.93
2018-06-17T20:20:08.262Z,9.60
2018-06-17T20:22:37.823Z,10.60
2018-06-17T20:25:06.490Z,11.23
2018-06-17T20:27:35.191Z,11.70
2018-06-17T20:30:03.879Z,12.23
2018-06-17T20:32:37.848Z,10.97
2018-06-17T20:35:11.789Z,11.40
2018-06-17T20:37:45.714Z,10.40
2018-06-17T20:40:20.150Z,10.43
2018-06-17T20:42:54.253Z,12.27
2018-06-17T20:45:22.870Z,12.10
2018-06-17T20:47:51.544Z,12.77
2018-06-17T20:50:20.207Z,13.13
2018-06-17T20:52:49.070Z,12.57
2018-06-17T20:55:18.350Z,13.03
2018-06-17T20:57:47.176Z,11.60
2018-06-17T21:00:15.817Z,12.37
2018-06-17T21:02:44.996Z,13.33
2018-06-17T21:05:13.833Z,12.87
2018-06-17T21:07:42.694Z,13.50
2018-06-17T21:10:11.827Z,12.83
2018-06-17T21:12:40.420Z,13.70
2018-06-17T21:15:14.442Z,12.57
2018-06-17T21:17:43.248Z,12.20
2018-06-17T21:20:17.191Z,13.00
2018-06-17T21:22:51.070Z,13.50
2018-06-17T21:25:24.975Z,14.90
2018-06-17T21:27:56.635Z,12.80
2018-06-17T21:30:25.342Z,14.43
2018-06-17T21:32:53.971Z,13.60
2018-06-17T21:35:22.583Z,13.20
2018-06-17T21:37:51.231Z,13.97
2018-06-17T21:40:19.870Z,12.57
2018-06-17T21:42:48.490Z,12.90
2018-06-17T21:45:17.120Z,13.83
2018-06-17T21:47:47.034Z,13.40
2018-06-17T21:50:15.635Z,12.60
2018-06-17T21:52:44.254Z,13.10
2018-06-17T21:55:12.873Z,12.83
2018-06-17T21:57:41.515Z,11.90
2018-06-17T22:00:10.651Z,13.10
2018-06-17T22:02:42.850Z,13.50
2018-06-17T22:05:11.561Z,12.77
2018-06-17T22:07:45.450Z,13.43
2018-06-17T22:10:19.320Z,12.00
2018-06-17T22:12:53.299Z,13.23
2018-06-17T22:16:25.981Z,10.80
2018-06-17T22:18:54.230Z,10.10
2018-06-17T22:21:22.814Z,9.57
2018-06-17T22:23:51.437Z,9.63
2018-06-17T22:26:20.051Z,9.73
2018-06-17T22:28:48.699Z,9.20
2018-06-17T22:31:17.294Z,10.07
2018-06-17T22:33:45.897Z,12.40
2018-06-17T22:36:14.511Z,11.53
2018-06-17T22:38:43.106Z,11.53
2018-06-17T22:41:11.779Z,11.60
2018-06-17T22:43:40.367Z,13.03
2018-06-17T22:46:09.173Z,11.40
2018-06-17T22:48:37.809Z,12.27
2018-06-17T22:51:06.490Z,12.27
2018-06-17T22:53:46.382Z,10.43
2018-06-17T22:56:20.268Z,11.60
2018-06-17T22:58:54.192Z,11.07
2018-06-17T23:01:28.220Z,11.37
2018-06-17T23:04:02.191Z,8.83
2018-06-17T23:06:36.158Z,10.40
2018-06-17T23:09:12.596Z,10.00
2018-06-17T23:11:41.337Z,10.07
2018-06-17T23:14:09.941Z,9.40
2018-06-17T23:16:38.598Z,10.37
2018-06-17T23:19:07.191Z,10.10
2018-06-17T23:21:35.453Z,9.37
2018-06-17T23:24:04.025Z,9.60
2018-06-17T23:26:32.613Z,9.80
2018-06-17T23:29:01.219Z,9.40
2018-06-17T23:31:29.813Z,11.10
2018-06-17T23:33:58.443Z,9.67
2018-06-17T23:36:27.039Z,9.90
2018-06-17T23:38:55.634Z,9.83
2018-06-17T23:41:24.259Z,10.90
2018-06-17T23:43:52.860Z,9.10
2018-06-17T23:46:26.651Z,8.83
2018-06-17T23:49:00.638Z,9.40
2018-06-17T23:51:34.626Z,10.13
2018-06-17T23:54:08.568Z,8.57
2018-06-17T23:56:37.243Z,9.00
2018-06-17T23:59:05.829Z,9.37
